sensor_id;sensor_type;location;lat;lon;timestamp;P1;durP1;ratioP1;P2;durP2;ratioP2
46653;SDS011;38960;51.074;17.004;2022-11-03T00:00:31;15.10;;;7.22;;
46653;SDS011;38960;51.074;17.004;2022-11-03T00:02:57;13.02;;;7.57;;
46653;SDS011;38960;51.074;17.004;2022-11-03T00:05:23;17.50;;;7.72;;
46653;SDS011;38960;51.074;17.004;2022-11-03T00:08:07;18.15;;;7.68;;
46653;SDS011;38960;51.074;17.004;2022-11-03T00:10:33;17.08;;;7.85;;
46653;SDS011;38960;51.074;17.004;2022-11-03T00:12:58;20.08;;;8.15;;
46653;SDS011;38960;51.074;17.004;2022-11-03T00:15:24;14.18;;;7.63;;
46653;SDS011;38960;51.074;17.004;2022-11-03T00:17:49;16.15;;;7.43;;
46653;SDS011;38960;51.074;17.004;2022-11-03T00:20:15;14.63;;;7.28;;
46653;SDS011;38960;51.074;17.004;2022-11-03T00:22:41;17.90;;;8.48;;
46653;SDS011;38960;51.074;17.004;2022-11-03T00:25:06;19.90;;;8.18;;
46653;SDS011;38960;51.074;17.004;2022-11-03T00:27:32;21.83;;;8.38;;
46653;SDS011;38960;51.074;17.004;2022-11-03T00:29:58;17.75;;;8.52;;
46653;SDS011;38960;51.074;17.004;2022-11-03T00:32:23;19.13;;;8.07;;
46653;SDS011;38960;51.074;17.004;2022-11-03T00:34:49;17.00;;;7.97;;
46653;SDS011;38960;51.074;17.004;2022-11-03T00:37:15;19.15;;;8.50;;
46653;SDS011;38960;51.074;17.004;2022-11-03T00:39:41;23.42;;;8.25;;
46653;SDS011;38960;51.074;17.004;2022-11-03T00:42:06;27.30;;;8.98;;
46653;SDS011;38960;51.074;17.004;2022-11-03T00:44:32;28.42;;;10.25;;
46653;SDS011;38960;51.074;17.004;2022-11-03T00:46:58;27.08;;;9.43;;
46653;SDS011;38960;51.074;17.004;2022-11-03T00:49:23;28.80;;;9.93;;
46653;SDS011;38960;51.074;17.004;2022-11-03T00:51:49;28.77;;;9.45;;
46653;SDS011;38960;51.074;17.004;2022-11-03T00:54:15;27.15;;;10.07;;
46653;SDS011;38960;51.074;17.004;2022-11-03T00:56:41;20.63;;;8.63;;
46653;SDS011;38960;51.074;17.004;2022-11-03T00:59:07;18.52;;;8.40;;
46653;SDS011;38960;51.074;17.004;2022-11-03T01:01:34;24.38;;;8.63;;
46653;SDS011;38960;51.074;17.004;2022-11-03T01:04:02;19.50;;;7.53;;
46653;SDS011;38960;51.074;17.004;2022-11-03T01:06:47;15.63;;;7.30;;
46653;SDS011;38960;51.074;17.004;2022-11-03T01:09:18;22.40;;;8.55;;
46653;SDS011;38960;51.074;17.004;2022-11-03T01:11:51;20.33;;;7.15;;
46653;SDS011;38960;51.074;17.004;2022-11-03T01:14:27;28.77;;;8.15;;
46653;SDS011;38960;51.074;17.004;2022-11-03T01:16:55;21.88;;;9.02;;
46653;SDS011;38960;51.074;17.004;2022-11-03T01:19:21;18.42;;;8.60;;
46653;SDS011;38960;51.074;17.004;2022-11-03T01:21:48;18.05;;;7.80;;
46653;SDS011;38960;51.074;17.004;2022-11-03T01:24:13;19.70;;;8.18;;
46653;SDS011;38960;51.074;17.004;2022-11-03T01:26:39;21.83;;;7.40;;
46653;SDS011;38960;51.074;17.004;2022-11-03T01:29:05;16.33;;;7.28;;
46653;SDS011;38960;51.074;17.004;2022-11-03T01:31:30;15.98;;;7.90;;
46653;SDS011;38960;51.074;17.004;2022-11-03T01:33:56;19.17;;;7.95;;
46653;SDS011;38960;51.074;17.004;2022-11-03T01:36:22;21.00;;;8.50;;
46653;SDS011;38960;51.074;17.004;2022-11-03T01:38:48;22.88;;;8.57;;
46653;SDS011;38960;51.074;17.004;2022-11-03T01:41:15;24.80;;;8.30;;
46653;SDS011;38960;51.074;17.004;2022-11-03T01:43:43;22.90;;;8.95;;
46653;SDS011;38960;51.074;17.004;2022-11-03T01:48:47;18.00;;;8.23;;
46653;SDS011;38960;51.074;17.004;2022-11-03T01:51:16;23.55;;;8.45;;
46653;SDS011;38960;51.074;17.004;2022-11-03T01:53:46;17.63;;;8.20;;
46653;SDS011;38960;51.074;17.004;2022-11-03T01:56:12;23.38;;;8.40;;
46653;SDS011;38960;51.074;17.004;2022-11-03T01:58:40;21.27;;;9.48;;
46653;SDS011;38960;51.074;17.004;2022-11-03T02:01:08;20.75;;;9.02;;
46653;SDS011;38960;51.074;17.004;2022-11-03T02:03:34;20.55;;;8.07;;
46653;SDS011;38960;51.074;17.004;2022-11-03T02:06:02;17.20;;;9.00;;
46653;SDS011;38960;51.074;17.004;2022-11-03T02:11:01;19.85;;;7.65;;
46653;SDS011;38960;51.074;17.004;2022-11-03T02:13:46;15.07;;;7.85;;
46653;SDS011;38960;51.074;17.004;2022-11-03T02:16:12;17.80;;;8.38;;
46653;SDS011;38960;51.074;17.004;2022-11-03T02:18:38;17.98;;;7.78;;
46653;SDS011;38960;51.074;17.004;2022-11-03T02:26:21;17.10;;;7.40;;
46653;SDS011;38960;51.074;17.004;2022-11-03T02:28:47;13.38;;;7.13;;
46653;SDS011;38960;51.074;17.004;2022-11-03T02:31:19;15.73;;;7.43;;
46653;SDS011;38960;51.074;17.004;2022-11-03T02:36:45;24.17;;;7.88;;
46653;SDS011;38960;51.074;17.004;2022-11-03T02:39:15;14.10;;;7.57;;
46653;SDS011;38960;51.074;17.004;2022-11-03T02:41:43;18.92;;;8.18;;
46653;SDS011;38960;51.074;17.004;2022-11-03T02:44:13;19.63;;;9.48;;
46653;SDS011;38960;51.074;17.004;2022-11-03T02:46:41;20.42;;;8.90;;
46653;SDS011;38960;51.074;17.004;2022-11-03T02:49:07;22.02;;;8.77;;
46653;SDS011;38960;51.074;17.004;2022-11-03T02:51:33;18.88;;;8.63;;
46653;SDS011;38960;51.074;17.004;2022-11-03T02:56:36;19.70;;;8.52;;
46653;SDS011;38960;51.074;17.004;2022-11-03T02:59:06;21.05;;;9.68;;
46653;SDS011;38960;51.074;17.004;2022-11-03T03:01:35;20.48;;;9.77;;
46653;SDS011;38960;51.074;17.004;2022-11-03T03:04:12;26.17;;;9.93;;
46653;SDS011;38960;51.074;17.004;2022-11-03T03:06:50;23.02;;;9.48;;
46653;SDS011;38960;51.074;17.004;2022-11-03T03:09:29;20.33;;;8.75;;
46653;SDS011;38960;51.074;17.004;2022-11-03T03:11:58;19.48;;;9.35;;
46653;SDS011;38960;51.074;17.004;2022-11-03T03:14:28;18.30;;;8.85;;
46653;SDS011;38960;51.074;17.004;2022-11-03T03:22:22;15.70;;;8.77;;
46653;SDS011;38960;51.074;17.004;2022-11-03T03:24:53;15.60;;;7.05;;
46653;SDS011;38960;51.074;17.004;2022-11-03T03:27:19;14.80;;;7.47;;
46653;SDS011;38960;51.074;17.004;2022-11-03T03:29:52;16.73;;;8.00;;
46653;SDS011;38960;51.074;17.004;2022-11-03T03:32:21;14.00;;;7.85;;
46653;SDS011;38960;51.074;17.004;2022-11-03T03:34:48;12.60;;;6.75;;
46653;SDS011;38960;51.074;17.004;2022-11-03T03:37:15;13.40;;;6.45;;
46653;SDS011;38960;51.074;17.004;2022-11-03T03:39:44;14.65;;;6.65;;
46653;SDS011;38960;51.074;17.004;2022-11-03T03:42:11;14.77;;;6.40;;
46653;SDS011;38960;51.074;17.004;2022-11-03T03:44:38;11.05;;;5.90;;
46653;SDS011;38960;51.074;17.004;2022-11-03T03:47:09;14.15;;;6.93;;
46653;SDS011;38960;51.074;17.004;2022-11-03T03:49:44;12.35;;;6.55;;
46653;SDS011;38960;51.074;17.004;2022-11-03T03:52:10;19.70;;;8.10;;
46653;SDS011;38960;51.074;17.004;2022-11-03T03:54:36;19.52;;;7.50;;
46653;SDS011;38960;51.074;17.004;2022-11-03T03:57:02;13.90;;;7.22;;
46653;SDS011;38960;51.074;17.004;2022-11-03T03:59:29;17.27;;;6.25;;
46653;SDS011;38960;51.074;17.004;2022-11-03T04:01:55;18.85;;;6.93;;
46653;SDS011;38960;51.074;17.004;2022-11-03T04:04:20;14.77;;;6.60;;
46653;SDS011;38960;51.074;17.004;2022-11-03T04:06:46;12.52;;;6.80;;
46653;SDS011;38960;51.074;17.004;2022-11-03T04:09:12;14.07;;;7.32;;
46653;SDS011;38960;51.074;17.004;2022-11-03T04:11:37;16.23;;;6.55;;
46653;SDS011;38960;51.074;17.004;2022-11-03T04:14:21;13.45;;;6.40;;
46653;SDS011;38960;51.074;17.004;2022-11-03T04:17:16;22.58;;;7.32;;
46653;SDS011;38960;51.074;17.004;2022-11-03T04:20:02;14.38;;;7.35;;
46653;SDS011;38960;51.074;17.004;2022-11-03T04:22:55;16.80;;;7.45;;
46653;SDS011;38960;51.074;17.004;2022-11-03T04:25:20;14.07;;;7.63;;
46653;SDS011;38960;51.074;17.004;2022-11-03T04:27:46;15.93;;;7.70;;
46653;SDS011;38960;51.074;17.004;2022-11-03T04:30:15;16.15;;;6.60;;
46653;SDS011;38960;51.074;17.004;2022-11-03T04:32:48;17.98;;;7.43;;
46653;SDS011;38960;51.074;17.004;2022-11-03T04:35:14;13.60;;;6.38;;
46653;SDS011;38960;51.074;17.004;2022-11-03T04:37:44;18.02;;;7.63;;
46653;SDS011;38960;51.074;17.004;2022-11-03T04:40:14;17.02;;;7.35;;
46653;SDS011;38960;51.074;17.004;2022-11-03T04:42:40;11.80;;;6.22;;
46653;SDS011;38960;51.074;17.004;2022-11-03T04:45:20;15.38;;;6.60;;
46653;SDS011;38960;51.074;17.004;2022-11-03T04:47:48;15.73;;;6.97;;
46653;SDS011;38960;51.074;17.004;2022-11-03T04:50:14;11.45;;;6.30;;
46653;SDS011;38960;51.074;17.004;2022-11-03T04:52:43;16.02;;;6.57;;
46653;SDS011;38960;51.074;17.004;2022-11-03T04:55:12;17.35;;;6.80;;
46653;SDS011;38960;51.074;17.004;2022-11-03T04:57:39;16.75;;;6.68;;
46653;SDS011;38960;51.074;17.004;2022-11-03T05:00:05;13.30;;;6.65;;
46653;SDS011;38960;51.074;17.004;2022-11-03T05:02:32;12.68;;;6.35;;
46653;SDS011;38960;51.074;17.004;2022-11-03T05:04:57;13.73;;;6.75;;
46653;SDS011;38960;51.074;17.004;2022-11-03T05:09:53;17.25;;;6.80;;
46653;SDS011;38960;51.074;17.004;2022-11-03T05:12:19;14.70;;;6.40;;
46653;SDS011;38960;51.074;17.004;2022-11-03T05:14:45;17.35;;;6.65;;
46653;SDS011;38960;51.074;17.004;2022-11-03T05:17:16;16.60;;;7.15;;
46653;SDS011;38960;51.074;17.004;2022-11-03T05:19:48;15.98;;;7.10;;
46653;SDS011;38960;51.074;17.004;2022-11-03T05:22:19;16.52;;;7.28;;
46653;SDS011;38960;51.074;17.004;2022-11-03T05:24:47;12.02;;;6.25;;
46653;SDS011;38960;51.074;17.004;2022-11-03T05:27:17;16.63;;;6.75;;
46653;SDS011;38960;51.074;17.004;2022-11-03T05:29:44;16.98;;;7.28;;
46653;SDS011;38960;51.074;17.004;2022-11-03T05:32:13;12.95;;;7.00;;
46653;SDS011;38960;51.074;17.004;2022-11-03T05:34:41;14.45;;;6.47;;
46653;SDS011;38960;51.074;17.004;2022-11-03T05:37:14;18.88;;;6.72;;
46653;SDS011;38960;51.074;17.004;2022-11-03T05:39:47;14.10;;;6.75;;
46653;SDS011;38960;51.074;17.004;2022-11-03T05:42:17;21.80;;;8.07;;
46653;SDS011;38960;51.074;17.004;2022-11-03T05:44:48;13.00;;;6.97;;
46653;SDS011;38960;51.074;17.004;2022-11-03T05:47:25;13.63;;;6.60;;
46653;SDS011;38960;51.074;17.004;2022-11-03T05:50:13;13.63;;;6.60;;
46653;SDS011;38960;51.074;17.004;2022-11-03T05:52:43;14.02;;;6.88;;
46653;SDS011;38960;51.074;17.004;2022-11-03T05:57:57;13.23;;;5.65;;
46653;SDS011;38960;51.074;17.004;2022-11-03T06:00:28;17.73;;;6.93;;
46653;SDS011;38960;51.074;17.004;2022-11-03T06:02:56;19.75;;;6.32;;
46653;SDS011;38960;51.074;17.004;2022-11-03T06:05:22;16.10;;;6.40;;
46653;SDS011;38960;51.074;17.004;2022-11-03T06:07:50;13.18;;;6.20;;
46653;SDS011;38960;51.074;17.004;2022-11-03T06:15:44;16.02;;;6.30;;
46653;SDS011;38960;51.074;17.004;2022-11-03T06:18:21;12.02;;;6.30;;
46653;SDS011;38960;51.074;17.004;2022-11-03T06:20:52;16.23;;;6.40;;
46653;SDS011;38960;51.074;17.004;2022-11-03T06:23:20;14.00;;;7.38;;
46653;SDS011;38960;51.074;17.004;2022-11-03T06:25:45;16.73;;;6.88;;
46653;SDS011;38960;51.074;17.004;2022-11-03T06:28:19;13.63;;;6.30;;
46653;SDS011;38960;51.074;17.004;2022-11-03T06:30:46;16.85;;;7.15;;
46653;SDS011;38960;51.074;17.004;2022-11-03T06:33:46;15.80;;;6.63;;
46653;SDS011;38960;51.074;17.004;2022-11-03T06:36:21;15.23;;;6.40;;
46653;SDS011;38960;51.074;17.004;2022-11-03T06:38:55;14.30;;;6.22;;
46653;SDS011;38960;51.074;17.004;2022-11-03T06:41:31;15.63;;;6.80;;
46653;SDS011;38960;51.074;17.004;2022-11-03T06:44:15;17.38;;;6.40;;
46653;SDS011;38960;51.074;17.004;2022-11-03T06:46:44;12.40;;;6.70;;
46653;SDS011;38960;51.074;17.004;2022-11-03T06:49:30;18.08;;;7.13;;
46653;SDS011;38960;51.074;17.004;2022-11-03T06:51:57;12.48;;;6.70;;
46653;SDS011;38960;51.074;17.004;2022-11-03T06:54:23;15.32;;;6.35;;
46653;SDS011;38960;51.074;17.004;2022-11-03T06:56:49;21.15;;;7.45;;
46653;SDS011;38960;51.074;17.004;2022-11-03T06:59:14;26.02;;;8.10;;
46653;SDS011;38960;51.074;17.004;2022-11-03T07:01:41;22.25;;;6.75;;
46653;SDS011;38960;51.074;17.004;2022-11-03T07:06:48;17.52;;;7.07;;
46653;SDS011;38960;51.074;17.004;2022-11-03T07:09:23;19.42;;;6.70;;
46653;SDS011;38960;51.074;17.004;2022-11-03T07:11:54;16.60;;;5.95;;
46653;SDS011;38960;51.074;17.004;2022-11-03T07:14:23;12.45;;;6.25;;
46653;SDS011;38960;51.074;17.004;2022-11-03T07:16:54;13.98;;;6.00;;
46653;SDS011;38960;51.074;17.004;2022-11-03T07:19:28;12.77;;;6.22;;
46653;SDS011;38960;51.074;17.004;2022-11-03T07:21:58;17.42;;;6.57;;
46653;SDS011;38960;51.074;17.004;2022-11-03T07:24:29;16.70;;;6.00;;
46653;SDS011;38960;51.074;17.004;2022-11-03T07:27:01;13.60;;;6.32;;
46653;SDS011;38960;51.074;17.004;2022-11-03T07:29:36;19.70;;;6.27;;
46653;SDS011;38960;51.074;17.004;2022-11-03T07:32:04;12.32;;;6.57;;
46653;SDS011;38960;51.074;17.004;2022-11-03T07:34:35;10.60;;;5.85;;
46653;SDS011;38960;51.074;17.004;2022-11-03T07:37:01;14.20;;;6.45;;
46653;SDS011;38960;51.074;17.004;2022-11-03T07:39:28;19.83;;;6.70;;
46653;SDS011;38960;51.074;17.004;2022-11-03T07:41:58;12.02;;;6.30;;
46653;SDS011;38960;51.074;17.004;2022-11-03T07:44:27;17.90;;;6.95;;
46653;SDS011;38960;51.074;17.004;2022-11-03T07:46:53;11.00;;;5.85;;
46653;SDS011;38960;51.074;17.004;2022-11-03T07:49:26;12.88;;;6.30;;
46653;SDS011;38960;51.074;17.004;2022-11-03T07:51:53;11.60;;;6.55;;
46653;SDS011;38960;51.074;17.004;2022-11-03T07:54:20;15.55;;;6.10;;
46653;SDS011;38960;51.074;17.004;2022-11-03T08:04:59;12.60;;;6.60;;
46653;SDS011;38960;51.074;17.004;2022-11-03T08:07:24;14.25;;;6.53;;
46653;SDS011;38960;51.074;17.004;2022-11-03T08:09:52;14.55;;;6.05;;
46653;SDS011;38960;51.074;17.004;2022-11-03T08:12:18;15.77;;;7.10;;
46653;SDS011;38960;51.074;17.004;2022-11-03T08:14:43;14.13;;;7.43;;
46653;SDS011;38960;51.074;17.004;2022-11-03T08:17:09;12.98;;;6.40;;
46653;SDS011;38960;51.074;17.004;2022-11-03T08:19:35;17.42;;;6.80;;
46653;SDS011;38960;51.074;17.004;2022-11-03T08:22:00;13.85;;;6.40;;
46653;SDS011;38960;51.074;17.004;2022-11-03T08:24:26;14.43;;;6.28;;
46653;SDS011;38960;51.074;17.004;2022-11-03T08:26:51;16.10;;;6.35;;
46653;SDS011;38960;51.074;17.004;2022-11-03T08:29:17;13.57;;;5.63;;
46653;SDS011;38960;51.074;17.004;2022-11-03T08:31:43;10.73;;;5.40;;
46653;SDS011;38960;51.074;17.004;2022-11-03T08:34:08;11.15;;;4.57;;
46653;SDS011;38960;51.074;17.004;2022-11-03T08:36:34;12.60;;;4.72;;
46653;SDS011;38960;51.074;17.004;2022-11-03T08:39:00;7.88;;;3.83;;
46653;SDS011;38960;51.074;17.004;2022-11-03T08:41:25;8.00;;;4.10;;
46653;SDS011;38960;51.074;17.004;2022-11-03T08:43:51;13.52;;;5.10;;
46653;SDS011;38960;51.074;17.004;2022-11-03T08:46:16;14.45;;;4.20;;
46653;SDS011;38960;51.074;17.004;2022-11-03T08:48:42;9.45;;;4.10;;
46653;SDS011;38960;51.074;17.004;2022-11-03T08:51:08;10.98;;;4.95;;
46653;SDS011;38960;51.074;17.004;2022-11-03T08:53:34;12.52;;;4.55;;
46653;SDS011;38960;51.074;17.004;2022-11-03T08:56:00;9.82;;;4.72;;
46653;SDS011;38960;51.074;17.004;2022-11-03T08:58:25;10.15;;;5.03;;
46653;SDS011;38960;51.074;17.004;2022-11-03T09:00:51;11.30;;;4.78;;
46653;SDS011;38960;51.074;17.004;2022-11-03T09:03:16;9.88;;;5.07;;
46653;SDS011;38960;51.074;17.004;2022-11-03T09:05:42;7.15;;;4.32;;
46653;SDS011;38960;51.074;17.004;2022-11-03T09:08:07;10.48;;;5.43;;
46653;SDS011;38960;51.074;17.004;2022-11-03T09:10:33;13.65;;;4.97;;
46653;SDS011;38960;51.074;17.004;2022-11-03T09:12:59;10.63;;;4.43;;
46653;SDS011;38960;51.074;17.004;2022-11-03T09:15:26;11.88;;;4.72;;
46653;SDS011;38960;51.074;17.004;2022-11-03T09:17:51;5.85;;;3.78;;
46653;SDS011;38960;51.074;17.004;2022-11-03T09:20:17;12.48;;;4.43;;
46653;SDS011;38960;51.074;17.004;2022-11-03T09:22:43;7.35;;;4.53;;
46653;SDS011;38960;51.074;17.004;2022-11-03T09:25:08;8.85;;;3.42;;
46653;SDS011;38960;51.074;17.004;2022-11-03T09:27:34;7.18;;;3.47;;
46653;SDS011;38960;51.074;17.004;2022-11-03T09:29:59;10.98;;;3.60;;
46653;SDS011;38960;51.074;17.004;2022-11-03T09:32:25;9.35;;;2.95;;
46653;SDS011;38960;51.074;17.004;2022-11-03T09:34:51;8.25;;;3.72;;
46653;SDS011;38960;51.074;17.004;2022-11-03T09:37:16;13.93;;;3.60;;
46653;SDS011;38960;51.074;17.004;2022-11-03T09:39:42;5.97;;;2.97;;
46653;SDS011;38960;51.074;17.004;2022-11-03T09:42:08;6.88;;;2.65;;
46653;SDS011;38960;51.074;17.004;2022-11-03T09:44:35;10.93;;;2.92;;
46653;SDS011;38960;51.074;17.004;2022-11-03T09:47:02;10.32;;;3.38;;
46653;SDS011;38960;51.074;17.004;2022-11-03T09:49:30;8.05;;;3.08;;
46653;SDS011;38960;51.074;17.004;2022-11-03T09:51:56;11.57;;;3.33;;
46653;SDS011;38960;51.074;17.004;2022-11-03T09:54:23;6.75;;;3.10;;
46653;SDS011;38960;51.074;17.004;2022-11-03T09:56:48;7.28;;;2.80;;
46653;SDS011;38960;51.074;17.004;2022-11-03T09:59:15;9.60;;;3.50;;
46653;SDS011;38960;51.074;17.004;2022-11-03T10:01:42;7.97;;;3.22;;
46653;SDS011;38960;51.074;17.004;2022-11-03T10:04:12;9.18;;;3.10;;
46653;SDS011;38960;51.074;17.004;2022-11-03T10:06:38;12.15;;;3.83;;
46653;SDS011;38960;51.074;17.004;2022-11-03T10:09:05;11.02;;;3.38;;
46653;SDS011;38960;51.074;17.004;2022-11-03T10:11:32;7.65;;;3.35;;
46653;SDS011;38960;51.074;17.004;2022-11-03T10:13:59;12.80;;;3.97;;
46653;SDS011;38960;51.074;17.004;2022-11-03T10:16:24;10.43;;;2.97;;
46653;SDS011;38960;51.074;17.004;2022-11-03T10:18:51;9.25;;;3.83;;
46653;SDS011;38960;51.074;17.004;2022-11-03T10:21:17;7.45;;;3.03;;
46653;SDS011;38960;51.074;17.004;2022-11-03T10:23:45;8.27;;;3.00;;
46653;SDS011;38960;51.074;17.004;2022-11-03T10:26:11;9.35;;;3.53;;
46653;SDS011;38960;51.074;17.004;2022-11-03T10:28:49;11.18;;;3.75;;
46653;SDS011;38960;51.074;17.004;2022-11-03T10:31:21;5.47;;;2.83;;
46653;SDS011;38960;51.074;17.004;2022-11-03T10:33:50;7.57;;;3.30;;
46653;SDS011;38960;51.074;17.004;2022-11-03T10:38:42;12.90;;;3.58;;
46653;SDS011;38960;51.074;17.004;2022-11-03T10:41:12;7.93;;;3.22;;
46653;SDS011;38960;51.074;17.004;2022-11-03T10:44:21;7.95;;;3.42;;
46653;SDS011;38960;51.074;17.004;2022-11-03T10:46:39;10.15;;;3.70;;
46653;SDS011;38960;51.074;17.004;2022-11-03T10:49:15;7.93;;;3.28;;
46653;SDS011;38960;51.074;17.004;2022-11-03T10:51:43;7.85;;;3.20;;
46653;SDS011;38960;51.074;17.004;2022-11-03T10:54:11;13.15;;;3.72;;
46653;SDS011;38960;51.074;17.004;2022-11-03T10:56:40;6.13;;;3.13;;
46653;SDS011;38960;51.074;17.004;2022-11-03T10:59:07;8.70;;;3.65;;
46653;SDS011;38960;51.074;17.004;2022-11-03T11:01:40;9.80;;;3.35;;
46653;SDS011;38960;51.074;17.004;2022-11-03T11:04:06;12.48;;;4.00;;
46653;SDS011;38960;51.074;17.004;2022-11-03T11:06:31;10.10;;;3.47;;
46653;SDS011;38960;51.074;17.004;2022-11-03T11:09:01;9.02;;;3.22;;
46653;SDS011;38960;51.074;17.004;2022-11-03T11:11:28;11.38;;;4.05;;
46653;SDS011;38960;51.074;17.004;2022-11-03T11:16:46;14.52;;;3.97;;
46653;SDS011;38960;51.074;17.004;2022-11-03T11:19:15;9.68;;;4.15;;
46653;SDS011;38960;51.074;17.004;2022-11-03T11:24:10;9.95;;;3.25;;
46653;SDS011;38960;51.074;17.004;2022-11-03T11:26:36;9.02;;;2.97;;
46653;SDS011;38960;51.074;17.004;2022-11-03T11:44:45;7.95;;;2.40;;
46653;SDS011;38960;51.074;17.004;2022-11-03T11:49:51;8.90;;;3.42;;
46653;SDS011;38960;51.074;17.004;2022-11-03T11:55:31;12.27;;;4.63;;
46653;SDS011;38960;51.074;17.004;2022-11-03T11:57:59;12.00;;;3.92;;
46653;SDS011;38960;51.074;17.004;2022-11-03T12:00:30;5.03;;;2.45;;
46653;SDS011;38960;51.074;17.004;2022-11-03T12:02:58;9.63;;;2.83;;
46653;SDS011;38960;51.074;17.004;2022-11-03T12:05:25;8.88;;;2.55;;
46653;SDS011;38960;51.074;17.004;2022-11-03T12:07:53;8.48;;;3.53;;
46653;SDS011;38960;51.074;17.004;2022-11-03T12:10:20;10.35;;;2.88;;
46653;SDS011;38960;51.074;17.004;2022-11-03T12:12:56;6.25;;;2.80;;
46653;SDS011;38960;51.074;17.004;2022-11-03T12:18:36;10.98;;;2.95;;
46653;SDS011;38960;51.074;17.004;2022-11-03T12:21:04;8.35;;;3.55;;
46653;SDS011;38960;51.074;17.004;2022-11-03T12:23:42;11.43;;;4.20;;
46653;SDS011;38960;51.074;17.004;2022-11-03T12:26:42;11.70;;;3.83;;
46653;SDS011;38960;51.074;17.004;2022-11-03T12:31:26;8.32;;;3.10;;
46653;SDS011;38960;51.074;17.004;2022-11-03T12:33:52;10.52;;;3.45;;
46653;SDS011;38960;51.074;17.004;2022-11-03T12:36:17;12.40;;;3.22;;
46653;SDS011;38960;51.074;17.004;2022-11-03T12:38:43;11.68;;;3.97;;
46653;SDS011;38960;51.074;17.004;2022-11-03T12:41:08;10.77;;;3.90;;
46653;SDS011;38960;51.074;17.004;2022-11-03T12:43:47;11.02;;;3.15;;
46653;SDS011;38960;51.074;17.004;2022-11-03T12:46:14;11.90;;;3.53;;
46653;SDS011;38960;51.074;17.004;2022-11-03T12:48:41;10.95;;;3.80;;
46653;SDS011;38960;51.074;17.004;2022-11-03T12:51:11;10.55;;;3.70;;
46653;SDS011;38960;51.074;17.004;2022-11-03T12:53:41;8.07;;;3.20;;
46653;SDS011;38960;51.074;17.004;2022-11-03T12:56:07;8.57;;;3.10;;
46653;SDS011;38960;51.074;17.004;2022-11-03T12:58:33;9.07;;;3.65;;
46653;SDS011;38960;51.074;17.004;2022-11-03T13:00:59;9.10;;;3.63;;
46653;SDS011;38960;51.074;17.004;2022-11-03T13:03:25;7.65;;;3.15;;
46653;SDS011;38960;51.074;17.004;2022-11-03T13:05:50;9.18;;;3.58;;
46653;SDS011;38960;51.074;17.004;2022-11-03T13:08:16;7.72;;;3.65;;
46653;SDS011;38960;51.074;17.004;2022-11-03T13:10:42;10.32;;;4.00;;
46653;SDS011;38960;51.074;17.004;2022-11-03T13:13:07;9.85;;;3.65;;
46653;SDS011;38960;51.074;17.004;2022-11-03T13:15:33;6.90;;;2.80;;
46653;SDS011;38960;51.074;17.004;2022-11-03T13:17:58;7.47;;;3.17;;
46653;SDS011;38960;51.074;17.004;2022-11-03T13:20:24;9.88;;;4.30;;
46653;SDS011;38960;51.074;17.004;2022-11-03T13:22:49;9.65;;;2.90;;
46653;SDS011;38960;51.074;17.004;2022-11-03T13:25:15;12.05;;;2.97;;
46653;SDS011;38960;51.074;17.004;2022-11-03T13:27:41;8.20;;;3.63;;
46653;SDS011;38960;51.074;17.004;2022-11-03T13:30:07;11.25;;;3.55;;
46653;SDS011;38960;51.074;17.004;2022-11-03T13:32:33;14.55;;;4.68;;
46653;SDS011;38960;51.074;17.004;2022-11-03T13:34:59;10.80;;;3.67;;
46653;SDS011;38960;51.074;17.004;2022-11-03T13:37:24;7.95;;;3.75;;
46653;SDS011;38960;51.074;17.004;2022-11-03T13:39:50;11.15;;;3.60;;
46653;SDS011;38960;51.074;17.004;2022-11-03T13:42:15;9.43;;;3.40;;
46653;SDS011;38960;51.074;17.004;2022-11-03T13:44:41;13.07;;;4.32;;
46653;SDS011;38960;51.074;17.004;2022-11-03T13:47:07;13.48;;;5.00;;
46653;SDS011;38960;51.074;17.004;2022-11-03T13:49:32;16.98;;;5.95;;
46653;SDS011;38960;51.074;17.004;2022-11-03T13:51:58;14.77;;;6.45;;
46653;SDS011;38960;51.074;17.004;2022-11-03T13:54:24;15.60;;;5.60;;
46653;SDS011;38960;51.074;17.004;2022-11-03T13:56:49;14.30;;;6.35;;
46653;SDS011;38960;51.074;17.004;2022-11-03T13:59:15;12.55;;;6.55;;
46653;SDS011;38960;51.074;17.004;2022-11-03T14:01:40;18.35;;;6.22;;
46653;SDS011;38960;51.074;17.004;2022-11-03T14:04:06;18.23;;;6.15;;
46653;SDS011;38960;51.074;17.004;2022-11-03T14:06:32;16.08;;;5.55;;
46653;SDS011;38960;51.074;17.004;2022-11-03T14:08:57;16.83;;;4.72;;
46653;SDS011;38960;51.074;17.004;2022-11-03T14:11:23;12.07;;;3.97;;
46653;SDS011;38960;51.074;17.004;2022-11-03T14:14:07;17.10;;;5.28;;
46653;SDS011;38960;51.074;17.004;2022-11-03T14:16:32;11.30;;;4.70;;
46653;SDS011;38960;51.074;17.004;2022-11-03T14:18:58;15.05;;;4.97;;
46653;SDS011;38960;51.074;17.004;2022-11-03T14:21:24;12.30;;;4.35;;
46653;SDS011;38960;51.074;17.004;2022-11-03T14:23:49;14.13;;;5.07;;
46653;SDS011;38960;51.074;17.004;2022-11-03T14:26:15;12.88;;;5.22;;
46653;SDS011;38960;51.074;17.004;2022-11-03T14:28:40;10.25;;;4.40;;
46653;SDS011;38960;51.074;17.004;2022-11-03T14:31:06;13.77;;;5.40;;
46653;SDS011;38960;51.074;17.004;2022-11-03T14:33:31;12.93;;;5.20;;
46653;SDS011;38960;51.074;17.004;2022-11-03T14:35:57;15.55;;;4.90;;
46653;SDS011;38960;51.074;17.004;2022-11-03T14:38:23;19.25;;;5.38;;
46653;SDS011;38960;51.074;17.004;2022-11-03T14:40:49;17.42;;;6.10;;
46653;SDS011;38960;51.074;17.004;2022-11-03T14:43:33;15.60;;;5.22;;
46653;SDS011;38960;51.074;17.004;2022-11-03T14:45:58;13.85;;;5.60;;
46653;SDS011;38960;51.074;17.004;2022-11-03T14:48:24;12.05;;;5.15;;
46653;SDS011;38960;51.074;17.004;2022-11-03T14:50:49;14.00;;;5.80;;
46653;SDS011;38960;51.074;17.004;2022-11-03T14:53:15;18.23;;;5.53;;
46653;SDS011;38960;51.074;17.004;2022-11-03T14:55:40;18.25;;;5.47;;
46653;SDS011;38960;51.074;17.004;2022-11-03T14:58:06;17.23;;;6.10;;
46653;SDS011;38960;51.074;17.004;2022-11-03T15:00:32;17.10;;;6.35;;
46653;SDS011;38960;51.074;17.004;2022-11-03T15:02:57;21.02;;;7.75;;
46653;SDS011;38960;51.074;17.004;2022-11-03T15:05:23;17.77;;;7.15;;
46653;SDS011;38960;51.074;17.004;2022-11-03T15:08:07;15.27;;;6.53;;
46653;SDS011;38960;51.074;17.004;2022-11-03T15:10:32;18.90;;;6.68;;
46653;SDS011;38960;51.074;17.004;2022-11-03T15:12:58;19.98;;;7.32;;
46653;SDS011;38960;51.074;17.004;2022-11-03T15:15:23;17.27;;;6.78;;
46653;SDS011;38960;51.074;17.004;2022-11-03T15:17:49;17.05;;;6.40;;
46653;SDS011;38960;51.074;17.004;2022-11-03T15:20:14;17.83;;;5.88;;
46653;SDS011;38960;51.074;17.004;2022-11-03T15:22:40;19.95;;;6.15;;
46653;SDS011;38960;51.074;17.004;2022-11-03T15:25:06;12.48;;;5.55;;
46653;SDS011;38960;51.074;17.004;2022-11-03T15:27:32;12.98;;;5.32;;
46653;SDS011;38960;51.074;17.004;2022-11-03T15:29:58;19.70;;;5.95;;
46653;SDS011;38960;51.074;17.004;2022-11-03T15:32:26;23.05;;;7.15;;
46653;SDS011;38960;51.074;17.004;2022-11-03T15:34:56;18.85;;;6.20;;
46653;SDS011;38960;51.074;17.004;2022-11-03T15:37:24;14.95;;;6.80;;
46653;SDS011;38960;51.074;17.004;2022-11-03T15:39:50;20.25;;;7.70;;
46653;SDS011;38960;51.074;17.004;2022-11-03T15:42:16;18.15;;;7.30;;
46653;SDS011;38960;51.074;17.004;2022-11-03T15:44:42;17.38;;;8.13;;
46653;SDS011;38960;51.074;17.004;2022-11-03T15:47:08;19.35;;;7.47;;